sensor_id;sensor_type;location;lat;lon;timestamp;P1;durP1;ratioP1;P2;durP2;ratioP2
5295;SDS011;2670;42.720;23.336;2023-08-12T00:01:16;9.00;;;3.50;;
5295;SDS011;2670;42.720;23.336;2023-08-12T00:03:46;5.33;;;3.80;;
5295;SDS011;2670;42.720;23.336;2023-08-12T00:06:13;4.67;;;3.60;;
5295;SDS011;2670;42.720;23.336;2023-08-12T00:08:39;5.80;;;3.20;;
5295;SDS011;2670;42.720;23.336;2023-08-12T00:11:06;4.67;;;3.60;;
5295;SDS011;2670;42.720;23.336;2023-08-12T00:13:33;3.73;;;3.00;;
5295;SDS011;2670;42.720;23.336;2023-08-12T00:16:00;4.80;;;3.33;;
5295;SDS011;2670;42.720;23.336;2023-08-12T00:18:28;4.50;;;3.10;;
5295;SDS011;2670;42.720;23.336;2023-08-12T00:21:02;3.30;;;2.63;;
5295;SDS011;2670;42.720;23.336;2023-08-12T00:23:32;4.63;;;3.20;;
5295;SDS011;2670;42.720;23.336;2023-08-12T00:25:59;5.10;;;3.33;;
5295;SDS011;2670;42.720;23.336;2023-08-12T00:28:26;5.57;;;3.60;;
5295;SDS011;2670;42.720;23.336;2023-08-12T00:30:52;4.47;;;3.03;;
5295;SDS011;2670;42.720;23.336;2023-08-12T00:33:19;10.30;;;3.60;;
5295;SDS011;2670;42.720;23.336;2023-08-12T00:35:47;3.93;;;3.40;;
5295;SDS011;2670;42.720;23.336;2023-08-12T00:38:14;3.90;;;3.27;;
5295;SDS011;2670;42.720;23.336;2023-08-12T00:40:41;3.50;;;3.10;;
5295;SDS011;2670;42.720;23.336;2023-08-12T00:43:07;3.37;;;3.07;;
5295;SDS011;2670;42.720;23.336;2023-08-12T00:45:35;6.33;;;3.93;;
5295;SDS011;2670;42.720;23.336;2023-08-12T00:48:02;6.60;;;3.17;;
5295;SDS011;2670;42.720;23.336;2023-08-12T00:50:30;4.33;;;3.20;;
5295;SDS011;2670;42.720;23.336;2023-08-12T00:52:58;4.30;;;2.97;;
5295;SDS011;2670;42.720;23.336;2023-08-12T00:55:25;5.57;;;3.50;;
5295;SDS011;2670;42.720;23.336;2023-08-12T00:57:52;3.33;;;3.00;;
5295;SDS011;2670;42.720;23.336;2023-08-12T01:00:19;3.50;;;3.20;;
5295;SDS011;2670;42.720;23.336;2023-08-12T01:02:47;5.43;;;3.87;;
5295;SDS011;2670;42.720;23.336;2023-08-12T01:05:15;4.10;;;3.67;;
5295;SDS011;2670;42.720;23.336;2023-08-12T01:07:42;5.40;;;3.27;;
5295;SDS011;2670;42.720;23.336;2023-08-12T01:10:11;4.97;;;2.93;;
5295;SDS011;2670;42.720;23.336;2023-08-12T01:12:41;4.37;;;3.33;;
5295;SDS011;2670;42.720;23.336;2023-08-12T01:15:15;7.67;;;3.10;;
5295;SDS011;2670;42.720;23.336;2023-08-12T01:17:47;4.30;;;3.00;;
5295;SDS011;2670;42.720;23.336;2023-08-12T01:20:17;3.90;;;3.50;;
5295;SDS011;2670;42.720;23.336;2023-08-12T01:22:49;5.10;;;4.17;;
5295;SDS011;2670;42.720;23.336;2023-08-12T01:25:23;11.47;;;4.03;;
5295;SDS011;2670;42.720;23.336;2023-08-12T01:27:50;7.10;;;4.43;;
5295;SDS011;2670;42.720;23.336;2023-08-12T01:30:17;4.70;;;3.53;;
5295;SDS011;2670;42.720;23.336;2023-08-12T01:32:49;4.10;;;3.70;;
5295;SDS011;2670;42.720;23.336;2023-08-12T01:35:20;5.70;;;4.30;;
5295;SDS011;2670;42.720;23.336;2023-08-12T01:37:50;4.70;;;4.00;;
5295;SDS011;2670;42.720;23.336;2023-08-12T01:40:18;11.00;;;4.00;;
5295;SDS011;2670;42.720;23.336;2023-08-12T01:42:47;7.30;;;4.07;;
5295;SDS011;2670;42.720;23.336;2023-08-12T01:45:14;4.23;;;3.73;;
5295;SDS011;2670;42.720;23.336;2023-08-12T01:47:42;4.80;;;4.10;;
5295;SDS011;2670;42.720;23.336;2023-08-12T01:50:09;4.40;;;3.57;;
5295;SDS011;2670;42.720;23.336;2023-08-12T01:52:36;4.43;;;3.60;;
5295;SDS011;2670;42.720;23.336;2023-08-12T01:55:03;5.37;;;3.60;;
5295;SDS011;2670;42.720;23.336;2023-08-12T01:57:30;4.40;;;3.63;;
5295;SDS011;2670;42.720;23.336;2023-08-12T01:59:58;4.50;;;3.43;;
5295;SDS011;2670;42.720;23.336;2023-08-12T02:02:25;4.03;;;3.30;;
5295;SDS011;2670;42.720;23.336;2023-08-12T02:04:52;6.43;;;3.93;;
5295;SDS011;2670;42.720;23.336;2023-08-12T02:07:19;5.27;;;4.03;;
5295;SDS011;2670;42.720;23.336;2023-08-12T02:09:45;4.60;;;3.63;;
5295;SDS011;2670;42.720;23.336;2023-08-12T02:12:12;5.30;;;3.90;;
5295;SDS011;2670;42.720;23.336;2023-08-12T02:14:39;5.67;;;3.90;;
5295;SDS011;2670;42.720;23.336;2023-08-12T02:17:07;8.63;;;3.87;;
5295;SDS011;2670;42.720;23.336;2023-08-12T02:19:34;3.90;;;3.20;;
5295;SDS011;2670;42.720;23.336;2023-08-12T02:22:01;4.20;;;3.43;;
5295;SDS011;2670;42.720;23.336;2023-08-12T02:24:28;8.97;;;3.57;;
5295;SDS011;2670;42.720;23.336;2023-08-12T02:26:55;6.13;;;3.30;;
5295;SDS011;2670;42.720;23.336;2023-08-12T02:29:22;5.70;;;3.50;;
5295;SDS011;2670;42.720;23.336;2023-08-12T02:31:48;4.37;;;3.43;;
5295;SDS011;2670;42.720;23.336;2023-08-12T02:34:16;4.00;;;3.40;;
5295;SDS011;2670;42.720;23.336;2023-08-12T02:36:43;3.67;;;3.20;;
5295;SDS011;2670;42.720;23.336;2023-08-12T02:39:11;4.50;;;3.87;;
5295;SDS011;2670;42.720;23.336;2023-08-12T02:41:38;5.30;;;3.50;;
5295;SDS011;2670;42.720;23.336;2023-08-12T02:44:05;4.17;;;3.43;;
5295;SDS011;2670;42.720;23.336;2023-08-12T02:46:31;8.50;;;3.63;;
5295;SDS011;2670;42.720;23.336;2023-08-12T02:48:58;7.27;;;3.60;;
5295;SDS011;2670;42.720;23.336;2023-08-12T02:51:26;6.80;;;3.90;;
5295;SDS011;2670;42.720;23.336;2023-08-12T02:53:53;7.13;;;3.77;;
5295;SDS011;2670;42.720;23.336;2023-08-12T02:56:20;4.73;;;3.57;;
5295;SDS011;2670;42.720;23.336;2023-08-12T02:58:46;8.83;;;3.47;;
5295;SDS011;2670;42.720;23.336;2023-08-12T03:01:13;4.73;;;3.83;;
5295;SDS011;2670;42.720;23.336;2023-08-12T03:03:41;8.50;;;4.10;;
5295;SDS011;2670;42.720;23.336;2023-08-12T03:06:07;6.23;;;4.00;;
5295;SDS011;2670;42.720;23.336;2023-08-12T03:08:35;6.47;;;3.70;;
5295;SDS011;2670;42.720;23.336;2023-08-12T03:11:02;5.27;;;3.80;;
5295;SDS011;2670;42.720;23.336;2023-08-12T03:13:29;5.60;;;4.10;;
5295;SDS011;2670;42.720;23.336;2023-08-12T03:15:56;6.53;;;4.33;;
5295;SDS011;2670;42.720;23.336;2023-08-12T03:18:23;5.47;;;4.10;;
5295;SDS011;2670;42.720;23.336;2023-08-12T03:20:49;10.43;;;4.40;;
5295;SDS011;2670;42.720;23.336;2023-08-12T03:23:16;6.80;;;4.30;;
5295;SDS011;2670;42.720;23.336;2023-08-12T03:25:46;5.60;;;3.83;;
5295;SDS011;2670;42.720;23.336;2023-08-12T03:28:13;5.53;;;3.63;;
5295;SDS011;2670;42.720;23.336;2023-08-12T03:30:39;4.90;;;3.67;;
5295;SDS011;2670;42.720;23.336;2023-08-12T03:33:06;5.37;;;4.03;;
5295;SDS011;2670;42.720;23.336;2023-08-12T03:35:33;7.63;;;3.43;;
5295;SDS011;2670;42.720;23.336;2023-08-12T03:37:59;6.27;;;4.13;;
5295;SDS011;2670;42.720;23.336;2023-08-12T03:40:26;4.30;;;3.63;;
5295;SDS011;2670;42.720;23.336;2023-08-12T03:42:54;6.60;;;3.40;;
5295;SDS011;2670;42.720;23.336;2023-08-12T03:45:21;8.53;;;3.90;;
5295;SDS011;2670;42.720;23.336;2023-08-12T03:47:48;4.30;;;3.57;;
5295;SDS011;2670;42.720;23.336;2023-08-12T03:50:14;7.67;;;4.03;;
5295;SDS011;2670;42.720;23.336;2023-08-12T03:52:41;4.27;;;3.43;;
5295;SDS011;2670;42.720;23.336;2023-08-12T03:55:08;4.67;;;3.43;;
5295;SDS011;2670;42.720;23.336;2023-08-12T03:57:35;6.67;;;3.87;;
5295;SDS011;2670;42.720;23.336;2023-08-12T04:00:04;9.63;;;4.47;;
5295;SDS011;2670;42.720;23.336;2023-08-12T04:02:33;5.90;;;3.83;;
5295;SDS011;2670;42.720;23.336;2023-08-12T04:04:59;5.00;;;3.70;;
5295;SDS011;2670;42.720;23.336;2023-08-12T04:07:26;7.67;;;4.23;;
5295;SDS011;2670;42.720;23.336;2023-08-12T04:09:53;4.93;;;4.00;;
5295;SDS011;2670;42.720;23.336;2023-08-12T04:12:19;7.80;;;4.23;;
5295;SDS011;2670;42.720;23.336;2023-08-12T04:14:46;6.80;;;4.20;;
5295;SDS011;2670;42.720;23.336;2023-08-12T04:17:14;4.77;;;4.00;;
5295;SDS011;2670;42.720;23.336;2023-08-12T04:19:41;5.13;;;3.70;;
5295;SDS011;2670;42.720;23.336;2023-08-12T04:22:08;11.63;;;3.80;;
5295;SDS011;2670;42.720;23.336;2023-08-12T04:24:35;6.30;;;4.40;;
5295;SDS011;2670;42.720;23.336;2023-08-12T04:27:01;6.20;;;4.10;;
5295;SDS011;2670;42.720;23.336;2023-08-12T04:29:28;5.50;;;3.90;;
5295;SDS011;2670;42.720;23.336;2023-08-12T04:31:55;7.53;;;4.27;;
5295;SDS011;2670;42.720;23.336;2023-08-12T04:34:23;7.93;;;5.50;;
5295;SDS011;2670;42.720;23.336;2023-08-12T04:36:50;9.27;;;4.33;;
5295;SDS011;2670;42.720;23.336;2023-08-12T04:39:16;8.00;;;5.17;;
5295;SDS011;2670;42.720;23.336;2023-08-12T04:41:43;7.60;;;5.03;;
5295;SDS011;2670;42.720;23.336;2023-08-12T04:44:10;4.77;;;4.27;;
5295;SDS011;2670;42.720;23.336;2023-08-12T04:46:36;11.90;;;4.80;;
5295;SDS011;2670;42.720;23.336;2023-08-12T04:49:03;8.97;;;4.83;;
5295;SDS011;2670;42.720;23.336;2023-08-12T04:51:31;7.43;;;4.90;;
5295;SDS011;2670;42.720;23.336;2023-08-12T04:53:58;5.73;;;4.70;;
5295;SDS011;2670;42.720;23.336;2023-08-12T04:56:27;5.47;;;4.47;;
5295;SDS011;2670;42.720;23.336;2023-08-12T04:58:54;12.70;;;6.00;;
5295;SDS011;2670;42.720;23.336;2023-08-12T05:01:21;5.40;;;4.50;;
5295;SDS011;2670;42.720;23.336;2023-08-12T05:03:48;7.63;;;4.83;;
5295;SDS011;2670;42.720;23.336;2023-08-12T05:06:15;8.43;;;5.43;;
5295;SDS011;2670;42.720;23.336;2023-08-12T05:08:43;6.97;;;6.20;;
5295;SDS011;2670;42.720;23.336;2023-08-12T05:11:09;7.47;;;5.90;;
5295;SDS011;2670;42.720;23.336;2023-08-12T05:13:36;7.27;;;6.00;;
5295;SDS011;2670;42.720;23.336;2023-08-12T05:16:03;8.30;;;5.90;;
5295;SDS011;2670;42.720;23.336;2023-08-12T05:18:30;6.57;;;5.57;;
5295;SDS011;2670;42.720;23.336;2023-08-12T05:20:57;10.70;;;6.07;;
5295;SDS011;2670;42.720;23.336;2023-08-12T05:23:24;7.37;;;6.43;;
5295;SDS011;2670;42.720;23.336;2023-08-12T05:25:52;8.20;;;6.33;;
5295;SDS011;2670;42.720;23.336;2023-08-12T05:28:18;7.40;;;6.17;;
5295;SDS011;2670;42.720;23.336;2023-08-12T05:30:45;13.23;;;6.30;;
5295;SDS011;2670;42.720;23.336;2023-08-12T05:33:12;8.67;;;5.50;;
5295;SDS011;2670;42.720;23.336;2023-08-12T05:35:38;9.83;;;5.77;;
5295;SDS011;2670;42.720;23.336;2023-08-12T05:38:05;10.03;;;5.90;;
5295;SDS011;2670;42.720;23.336;2023-08-12T05:40:32;7.10;;;5.07;;
5295;SDS011;2670;42.720;23.336;2023-08-12T05:43:00;11.03;;;5.90;;
5295;SDS011;2670;42.720;23.336;2023-08-12T05:45:27;8.50;;;5.37;;
5295;SDS011;2670;42.720;23.336;2023-08-12T05:47:54;8.93;;;5.23;;
5295;SDS011;2670;42.720;23.336;2023-08-12T05:50:20;6.30;;;5.50;;
5295;SDS011;2670;42.720;23.336;2023-08-12T05:52:47;7.77;;;5.30;;
5295;SDS011;2670;42.720;23.336;2023-08-12T05:55:14;6.53;;;4.57;;
5295;SDS011;2670;42.720;23.336;2023-08-12T05:57:41;8.40;;;4.90;;
5295;SDS011;2670;42.720;23.336;2023-08-12T06:00:09;8.50;;;4.70;;
5295;SDS011;2670;42.720;23.336;2023-08-12T06:02:37;7.10;;;4.40;;
5295;SDS011;2670;42.720;23.336;2023-08-12T06:05:04;9.93;;;4.07;;
5295;SDS011;2670;42.720;23.336;2023-08-12T06:07:31;10.70;;;4.37;;
5295;SDS011;2670;42.720;23.336;2023-08-12T06:09:58;9.70;;;5.00;;
5295;SDS011;2670;42.720;23.336;2023-08-12T06:12:25;5.70;;;4.20;;
5295;SDS011;2670;42.720;23.336;2023-08-12T06:14:52;11.23;;;4.13;;
5295;SDS011;2670;42.720;23.336;2023-08-12T06:17:20;11.63;;;4.60;;
5295;SDS011;2670;42.720;23.336;2023-08-12T06:19:46;10.03;;;3.70;;
5295;SDS011;2670;42.720;23.336;2023-08-12T06:22:13;11.93;;;4.30;;
5295;SDS011;2670;42.720;23.336;2023-08-12T06:24:40;11.03;;;4.00;;
5295;SDS011;2670;42.720;23.336;2023-08-12T06:27:06;17.33;;;4.30;;
5295;SDS011;2670;42.720;23.336;2023-08-12T06:29:33;5.80;;;3.83;;
5295;SDS011;2670;42.720;23.336;2023-08-12T06:32:00;9.00;;;3.70;;
5295;SDS011;2670;42.720;23.336;2023-08-12T06:34:28;6.57;;;3.70;;
5295;SDS011;2670;42.720;23.336;2023-08-12T06:36:55;5.97;;;3.90;;
5295;SDS011;2670;42.720;23.336;2023-08-12T06:39:21;10.27;;;4.37;;
5295;SDS011;2670;42.720;23.336;2023-08-12T06:41:48;8.17;;;4.40;;
5295;SDS011;2670;42.720;23.336;2023-08-12T06:44:16;7.63;;;5.17;;
5295;SDS011;2670;42.720;23.336;2023-08-12T06:46:42;9.00;;;5.33;;
5295;SDS011;2670;42.720;23.336;2023-08-12T06:49:09;9.17;;;4.80;;
5295;SDS011;2670;42.720;23.336;2023-08-12T06:51:37;5.13;;;3.80;;
5295;SDS011;2670;42.720;23.336;2023-08-12T06:54:04;5.10;;;4.13;;
5295;SDS011;2670;42.720;23.336;2023-08-12T06:56:31;8.43;;;3.93;;
5295;SDS011;2670;42.720;23.336;2023-08-12T06:58:57;5.97;;;3.90;;
5295;SDS011;2670;42.720;23.336;2023-08-12T07:01:24;5.87;;;3.67;;
5295;SDS011;2670;42.720;23.336;2023-08-12T07:03:51;7.33;;;3.80;;
5295;SDS011;2670;42.720;23.336;2023-08-12T07:06:17;5.40;;;4.60;;
5295;SDS011;2670;42.720;23.336;2023-08-12T07:08:46;8.00;;;5.23;;
5295;SDS011;2670;42.720;23.336;2023-08-12T07:11:12;6.20;;;4.60;;
5295;SDS011;2670;42.720;23.336;2023-08-12T07:13:39;10.30;;;4.30;;
5295;SDS011;2670;42.720;23.336;2023-08-12T07:16:07;6.47;;;4.53;;
5295;SDS011;2670;42.720;23.336;2023-08-12T07:18:34;8.47;;;4.00;;
5295;SDS011;2670;42.720;23.336;2023-08-12T07:21:01;7.13;;;4.93;;
5295;SDS011;2670;42.720;23.336;2023-08-12T07:23:27;6.47;;;4.90;;
5295;SDS011;2670;42.720;23.336;2023-08-12T07:25:55;5.80;;;4.57;;
5295;SDS011;2670;42.720;23.336;2023-08-12T07:28:22;9.10;;;4.20;;
5295;SDS011;2670;42.720;23.336;2023-08-12T07:30:49;6.83;;;3.77;;
5295;SDS011;2670;42.720;23.336;2023-08-12T07:33:17;3.47;;;3.03;;
5295;SDS011;2670;42.720;23.336;2023-08-12T07:35:44;4.67;;;3.63;;
5295;SDS011;2670;42.720;23.336;2023-08-12T07:38:10;5.80;;;3.60;;
5295;SDS011;2670;42.720;23.336;2023-08-12T07:40:37;6.23;;;3.50;;
5295;SDS011;2670;42.720;23.336;2023-08-12T07:43:05;5.10;;;3.57;;
5295;SDS011;2670;42.720;23.336;2023-08-12T07:45:32;5.60;;;3.93;;
5295;SDS011;2670;42.720;23.336;2023-08-12T07:47:59;14.00;;;5.37;;
5295;SDS011;2670;42.720;23.336;2023-08-12T07:50:25;5.70;;;4.43;;
5295;SDS011;2670;42.720;23.336;2023-08-12T07:52:52;5.40;;;3.90;;
5295;SDS011;2670;42.720;23.336;2023-08-12T07:55:19;7.50;;;3.80;;
5295;SDS011;2670;42.720;23.336;2023-08-12T07:57:46;5.93;;;3.77;;
5295;SDS011;2670;42.720;23.336;2023-08-12T08:00:14;6.33;;;3.50;;
5295;SDS011;2670;42.720;23.336;2023-08-12T08:02:41;3.93;;;2.93;;
5295;SDS011;2670;42.720;23.336;2023-08-12T08:05:08;3.63;;;3.10;;
5295;SDS011;2670;42.720;23.336;2023-08-12T08:07:34;6.50;;;3.50;;
5295;SDS011;2670;42.720;23.336;2023-08-12T08:10:01;8.40;;;3.20;;
5295;SDS011;2670;42.720;23.336;2023-08-12T08:12:28;3.57;;;2.83;;
5295;SDS011;2670;42.720;23.336;2023-08-12T08:14:55;5.80;;;3.00;;
5295;SDS011;2670;42.720;23.336;2023-08-12T08:17:23;11.10;;;3.90;;
5295;SDS011;2670;42.720;23.336;2023-08-12T08:19:50;5.00;;;3.47;;
5295;SDS011;2670;42.720;23.336;2023-08-12T08:22:16;9.23;;;4.40;;
5295;SDS011;2670;42.720;23.336;2023-08-12T08:24:43;4.27;;;2.80;;
5295;SDS011;2670;42.720;23.336;2023-08-12T08:27:10;4.57;;;3.13;;
5295;SDS011;2670;42.720;23.336;2023-08-12T08:29:38;4.10;;;3.20;;
5295;SDS011;2670;42.720;23.336;2023-08-12T08:32:05;5.97;;;3.33;;
5295;SDS011;2670;42.720;23.336;2023-08-12T08:34:33;3.97;;;2.83;;
5295;SDS011;2670;42.720;23.336;2023-08-12T08:37:00;3.97;;;2.80;;
5295;SDS011;2670;42.720;23.336;2023-08-12T08:39:27;4.50;;;3.30;;
5295;SDS011;2670;42.720;23.336;2023-08-12T08:41:54;6.83;;;3.00;;
5295;SDS011;2670;42.720;23.336;2023-08-12T08:44:22;4.00;;;2.93;;
5295;SDS011;2670;42.720;23.336;2023-08-12T08:46:49;5.53;;;2.80;;
5295;SDS011;2670;42.720;23.336;2023-08-12T08:49:18;5.07;;;2.93;;
5295;SDS011;2670;42.720;23.336;2023-08-12T08:51:47;4.27;;;3.00;;
5295;SDS011;2670;42.720;23.336;2023-08-12T08:54:15;2.97;;;2.63;;
5295;SDS011;2670;42.720;23.336;2023-08-12T08:56:42;5.53;;;2.73;;
5295;SDS011;2670;42.720;23.336;2023-08-12T08:59:09;8.70;;;3.63;;
5295;SDS011;2670;42.720;23.336;2023-08-12T09:01:36;4.00;;;3.40;;
5295;SDS011;2670;42.720;23.336;2023-08-12T09:04:04;4.13;;;3.13;;
5295;SDS011;2670;42.720;23.336;2023-08-12T09:06:32;4.47;;;3.30;;
5295;SDS011;2670;42.720;23.336;2023-08-12T09:09:01;3.80;;;2.90;;
5295;SDS011;2670;42.720;23.336;2023-08-12T09:11:30;5.40;;;3.10;;
5295;SDS011;2670;42.720;23.336;2023-08-12T09:13:58;5.20;;;3.43;;
5295;SDS011;2670;42.720;23.336;2023-08-12T09:16:25;7.37;;;3.10;;
5295;SDS011;2670;42.720;23.336;2023-08-12T09:18:54;6.67;;;3.20;;
5295;SDS011;2670;42.720;23.336;2023-08-12T09:21:21;35.60;;;17.53;;
5295;SDS011;2670;42.720;23.336;2023-08-12T09:23:48;5.67;;;3.50;;
5295;SDS011;2670;42.720;23.336;2023-08-12T09:26:18;4.40;;;3.17;;
5295;SDS011;2670;42.720;23.336;2023-08-12T09:28:45;3.67;;;2.93;;
5295;SDS011;2670;42.720;23.336;2023-08-12T09:31:21;6.57;;;2.97;;
5295;SDS011;2670;42.720;23.336;2023-08-12T09:33:50;3.77;;;2.83;;
5295;SDS011;2670;42.720;23.336;2023-08-12T09:36:17;3.30;;;2.50;;
5295;SDS011;2670;42.720;23.336;2023-08-12T09:38:44;4.07;;;3.10;;
5295;SDS011;2670;42.720;23.336;2023-08-12T09:41:12;5.30;;;2.30;;
5295;SDS011;2670;42.720;23.336;2023-08-12T09:43:41;10.13;;;3.10;;
5295;SDS011;2670;42.720;23.336;2023-08-12T09:46:10;3.77;;;2.80;;
5295;SDS011;2670;42.720;23.336;2023-08-12T09:48:38;3.30;;;2.40;;
5295;SDS011;2670;42.720;23.336;2023-08-12T09:51:05;2.53;;;2.33;;
5295;SDS011;2670;42.720;23.336;2023-08-12T09:53:33;3.60;;;2.77;;
5295;SDS011;2670;42.720;23.336;2023-08-12T09:56:00;8.63;;;3.20;;
5295;SDS011;2670;42.720;23.336;2023-08-12T09:58:32;6.30;;;3.50;;
5295;SDS011;2670;42.720;23.336;2023-08-12T10:01:02;2.87;;;2.30;;
5295;SDS011;2670;42.720;23.336;2023-08-12T10:03:29;2.67;;;2.43;;
5295;SDS011;2670;42.720;23.336;2023-08-12T10:05:56;2.87;;;2.57;;
5295;SDS011;2670;42.720;23.336;2023-08-12T10:08:24;3.63;;;2.70;;
5295;SDS011;2670;42.720;23.336;2023-08-12T10:10:51;2.83;;;2.17;;
5295;SDS011;2670;42.720;23.336;2023-08-12T10:13:18;3.30;;;2.90;;
5295;SDS011;2670;42.720;23.336;2023-08-12T10:15:46;5.17;;;2.90;;
5295;SDS011;2670;42.720;23.336;2023-08-12T10:18:15;5.07;;;2.90;;
5295;SDS011;2670;42.720;23.336;2023-08-12T10:20:44;4.43;;;2.77;;
5295;SDS011;2670;42.720;23.336;2023-08-12T10:23:14;17.37;;;2.97;;
5295;SDS011;2670;42.720;23.336;2023-08-12T10:25:43;3.50;;;3.20;;
5295;SDS011;2670;42.720;23.336;2023-08-12T10:28:10;6.27;;;2.70;;
5295;SDS011;2670;42.720;23.336;2023-08-12T10:30:38;3.10;;;2.47;;
5295;SDS011;2670;42.720;23.336;2023-08-12T10:33:07;6.80;;;3.20;;
5295;SDS011;2670;42.720;23.336;2023-08-12T10:35:41;4.20;;;2.57;;
5295;SDS011;2670;42.720;23.336;2023-08-12T10:38:10;3.93;;;2.67;;
5295;SDS011;2670;42.720;23.336;2023-08-12T10:40:38;3.90;;;3.00;;
5295;SDS011;2670;42.720;23.336;2023-08-12T10:43:05;4.53;;;2.73;;
5295;SDS011;2670;42.720;23.336;2023-08-12T10:45:41;4.70;;;2.80;;
5295;SDS011;2670;42.720;23.336;2023-08-12T10:48:09;3.70;;;3.00;;
5295;SDS011;2670;42.720;23.336;2023-08-12T10:50:44;3.13;;;2.77;;
5295;SDS011;2670;42.720;23.336;2023-08-12T10:53:25;8.17;;;3.60;;
5295;SDS011;2670;42.720;23.336;2023-08-12T10:55:56;2.40;;;2.20;;
5295;SDS011;2670;42.720;23.336;2023-08-12T10:58:24;4.60;;;2.30;;
5295;SDS011;2670;42.720;23.336;2023-08-12T11:00:53;7.80;;;2.50;;
5295;SDS011;2670;42.720;23.336;2023-08-12T11:03:19;2.87;;;2.07;;
5295;SDS011;2670;42.720;23.336;2023-08-12T11:05:48;2.30;;;1.80;;
5295;SDS011;2670;42.720;23.336;2023-08-12T11:08:15;2.90;;;2.10;;
5295;SDS011;2670;42.720;23.336;2023-08-12T11:10:43;2.37;;;1.93;;
5295;SDS011;2670;42.720;23.336;2023-08-12T11:13:09;2.03;;;1.83;;
5295;SDS011;2670;42.720;23.336;2023-08-12T11:15:37;2.30;;;2.00;;
5295;SDS011;2670;42.720;23.336;2023-08-12T11:18:07;2.90;;;2.20;;
5295;SDS011;2670;42.720;23.336;2023-08-12T11:20:35;2.83;;;2.23;;
5295;SDS011;2670;42.720;23.336;2023-08-12T11:23:04;2.53;;;2.00;;
5295;SDS011;2670;42.720;23.336;2023-08-12T11:25:33;3.03;;;1.93;;
5295;SDS011;2670;42.720;23.336;2023-08-12T11:28:01;4.77;;;2.13;;
5295;SDS011;2670;42.720;23.336;2023-08-12T11:30:28;7.30;;;1.60;;
5295;SDS011;2670;42.720;23.336;2023-08-12T11:32:55;3.30;;;1.77;;
5295;SDS011;2670;42.720;23.336;2023-08-12T11:35:22;2.50;;;1.90;;
5295;SDS011;2670;42.720;23.336;2023-08-12T11:37:50;2.23;;;2.03;;
5295;SDS011;2670;42.720;23.336;2023-08-12T11:40:20;2.60;;;2.07;;
5295;SDS011;2670;42.720;23.336;2023-08-12T11:42:47;3.33;;;2.33;;
5295;SDS011;2670;42.720;23.336;2023-08-12T11:45:15;2.90;;;2.40;;
5295;SDS011;2670;42.720;23.336;2023-08-12T11:47:43;2.07;;;1.87;;
5295;SDS011;2670;42.720;23.336;2023-08-12T11:50:12;2.37;;;2.17;;
5295;SDS011;2670;42.720;23.336;2023-08-12T11:52:39;2.30;;;2.10;;
5295;SDS011;2670;42.720;23.336;2023-08-12T11:55:07;2.40;;;2.00;;
5295;SDS011;2670;42.720;23.336;2023-08-12T11:57:36;2.67;;;2.33;;
5295;SDS011;2670;42.720;23.336;2023-08-12T12:00:07;3.03;;;1.90;;
5295;SDS011;2670;42.720;23.336;2023-08-12T12:02:38;5.07;;;2.20;;
5295;SDS011;2670;42.720;23.336;2023-08-12T12:05:07;3.80;;;2.10;;
5295;SDS011;2670;42.720;23.336;2023-08-12T12:07:36;2.63;;;2.23;;
5295;SDS011;2670;42.720;23.336;2023-08-12T12:10:03;2.30;;;1.93;;
5295;SDS011;2670;42.720;23.336;2023-08-12T12:12:31;2.20;;;1.90;;
5295;SDS011;2670;42.720;23.336;2023-08-12T12:15:01;2.13;;;1.93;;
5295;SDS011;2670;42.720;23.336;2023-08-12T12:17:29;4.00;;;2.17;;
5295;SDS011;2670;42.720;23.336;2023-08-12T12:19:56;2.30;;;1.87;;
5295;SDS011;2670;42.720;23.336;2023-08-12T12:22:28;2.03;;;1.83;;
5295;SDS011;2670;42.720;23.336;2023-08-12T12:24:57;3.30;;;2.20;;
5295;SDS011;2670;42.720;23.336;2023-08-12T12:27:25;2.50;;;2.10;;
5295;SDS011;2670;42.720;23.336;2023-08-12T12:29:52;2.13;;;1.93;;
5295;SDS011;2670;42.720;23.336;2023-08-12T12:32:20;2.10;;;1.90;;
5295;SDS011;2670;42.720;23.336;2023-08-12T12:34:47;2.73;;;1.73;;
5295;SDS011;2670;42.720;23.336;2023-08-12T12:37:14;2.70;;;2.40;;
5295;SDS011;2670;42.720;23.336;2023-08-12T12:39:41;2.90;;;2.03;;
5295;SDS011;2670;42.720;23.336;2023-08-12T12:42:07;2.33;;;1.97;;
5295;SDS011;2670;42.720;23.336;2023-08-12T12:44:34;2.43;;;2.23;;
5295;SDS011;2670;42.720;23.336;2023-08-12T12:47:01;5.80;;;2.53;;
5295;SDS011;2670;42.720;23.336;2023-08-12T12:49:30;4.23;;;2.40;;
5295;SDS011;2670;42.720;23.336;2023-08-12T12:51:57;1.97;;;1.77;;
5295;SDS011;2670;42.720;23.336;2023-08-12T12:54:23;4.40;;;2.13;;
5295;SDS011;2670;42.720;23.336;2023-08-12T12:56:50;3.33;;;2.30;;
5295;SDS011;2670;42.720;23.336;2023-08-12T12:59:17;2.43;;;2.23;;
5295;SDS011;2670;42.720;23.336;2023-08-12T13:01:44;2.43;;;2.20;;
5295;SDS011;2670;42.720;23.336;2023-08-12T13:04:11;3.10;;;2.17;;
5295;SDS011;2670;42.720;23.336;2023-08-12T13:06:39;2.60;;;1.90;;
5295;SDS011;2670;42.720;23.336;2023-08-12T13:09:05;2.60;;;1.80;;
5295;SDS011;2670;42.720;23.336;2023-08-12T13:11:32;3.47;;;2.03;;
5295;SDS011;2670;42.720;23.336;2023-08-12T13:14:00;2.50;;;1.70;;
5295;SDS011;2670;42.720;23.336;2023-08-12T13:16:27;5.03;;;2.50;;
5295;SDS011;2670;42.720;23.336;2023-08-12T13:18:54;3.30;;;1.70;;
5295;SDS011;2670;42.720;23.336;2023-08-12T13:21:21;2.10;;;1.70;;
5295;SDS011;2670;42.720;23.336;2023-08-12T13:23:49;2.60;;;2.23;;
5295;SDS011;2670;42.720;23.336;2023-08-12T13:26:15;3.53;;;2.10;;
5295;SDS011;2670;42.720;23.336;2023-08-12T13:28:42;2.70;;;1.93;;
5295;SDS011;2670;42.720;23.336;2023-08-12T13:31:09;2.70;;;2.20;;
5295;SDS011;2670;42.720;23.336;2023-08-12T13:33:36;2.33;;;1.90;;
5295;SDS011;2670;42.720;23.336;2023-08-12T13:36:03;3.13;;;2.40;;
5295;SDS011;2670;42.720;23.336;2023-08-12T13:38:29;3.07;;;2.20;;
5295;SDS011;2670;42.720;23.336;2023-08-12T13:40:57;5.23;;;2.10;;
5295;SDS011;2670;42.720;23.336;2023-08-12T13:43:24;3.87;;;2.03;;
5295;SDS011;2670;42.720;23.336;2023-08-12T13:45:52;4.10;;;1.90;;
5295;SDS011;2670;42.720;23.336;2023-08-12T13:48:19;2.10;;;1.70;;
5295;SDS011;2670;42.720;23.336;2023-08-12T13:50:46;2.93;;;2.10;;
5295;SDS011;2670;42.720;23.336;2023-08-12T13:53:14;3.17;;;1.70;;
5295;SDS011;2670;42.720;23.336;2023-08-12T13:55:41;2.13;;;1.93;;
5295;SDS011;2670;42.720;23.336;2023-08-12T13:58:12;3.17;;;2.03;;
5295;SDS011;2670;42.720;23.336;2023-08-12T14:00:38;6.93;;;1.90;;
5295;SDS011;2670;42.720;23.336;2023-08-12T14:03:05;2.20;;;2.00;;
5295;SDS011;2670;42.720;23.336;2023-08-12T14:05:32;2.60;;;2.00;;
5295;SDS011;2670;42.720;23.336;2023-08-12T14:07:58;1.73;;;1.60;;
5295;SDS011;2670;42.720;23.336;2023-08-12T14:10:25;2.30;;;1.87;;
5295;SDS011;2670;42.720;23.336;2023-08-12T14:12:52;1.70;;;1.47;;
5295;SDS011;2670;42.720;23.336;2023-08-12T14:15:20;2.60;;;2.27;;
5295;SDS011;2670;42.720;23.336;2023-08-12T14:17:47;3.17;;;1.93;;
5295;SDS011;2670;42.720;23.336;2023-08-12T14:20:13;4.60;;;2.20;;
5295;SDS011;2670;42.720;23.336;2023-08-12T14:22:41;2.60;;;2.00;;
5295;SDS011;2670;42.720;23.336;2023-08-12T14:25:09;2.00;;;1.80;;
5295;SDS011;2670;42.720;23.336;2023-08-12T14:27:36;6.20;;;2.00;;
5295;SDS011;2670;42.720;23.336;2023-08-12T14:30:03;2.43;;;1.80;;
5295;SDS011;2670;42.720;23.336;2023-08-12T14:32:31;2.90;;;1.70;;
5295;SDS011;2670;42.720;23.336;2023-08-12T14:34:58;2.10;;;1.70;;
5295;SDS011;2670;42.720;23.336;2023-08-12T14:37:25;2.77;;;2.13;;
5295;SDS011;2670;42.720;23.336;2023-08-12T14:39:52;3.00;;;2.00;;
5295;SDS011;2670;42.720;23.336;2023-08-12T14:42:19;3.40;;;2.20;;
5295;SDS011;2670;42.720;23.336;2023-08-12T14:44:46;2.43;;;1.93;;
5295;SDS011;2670;42.720;23.336;2023-08-12T14:47:12;3.50;;;1.90;;
5295;SDS011;2670;42.720;23.336;2023-08-12T14:49:41;3.73;;;2.27;;
5295;SDS011;2670;42.720;23.336;2023-08-12T14:52:14;3.10;;;2.27;;
5295;SDS011;2670;42.720;23.336;2023-08-12T14:54:41;3.40;;;2.33;;
5295;SDS011;2670;42.720;23.336;2023-08-12T14:57:10;2.93;;;1.90;;
5295;SDS011;2670;42.720;23.336;2023-08-12T14:59:37;2.60;;;2.30;;
5295;SDS011;2670;42.720;23.336;2023-08-12T15:02:04;3.90;;;2.63;;